Time;durP1;ratioP1;P1;durP2;ratioP2;P2;SDS_P1;SDS_P2;PMS_P1;PMS_P2;Temp;Humidity;BMP_temperature;BMP_pressure;BME280_temperature;BME280_humidity;BME280_pressure;Samples;Min_cycle;Max_cycle;Signal;HPM_P1;HPM_P2
2023/08/23 00:00:08;;;;;;;;;5.00;4.67;;;;;-143.90;88.82;74076.66;4955700;27;104532;-74
2023/08/23 00:02:34;;;;;;;;;6.33;6.00;;;;;-143.90;88.90;74078.72;4951206;27;103976;-75
2023/08/23 00:05:01;;;;;;;;;3.33;3.33;;;;;-143.90;88.67;74080.78;4958789;27;102221;-74
2023/08/23 00:07:28;;;;;;;;;5.33;5.00;;;;;-143.90;88.07;74078.72;4945085;27;101830;-74
2023/08/23 00:09:54;;;;;;;;;2.67;2.67;;;;;-143.90;88.46;74084.91;4955427;27;102380;-74
2023/08/23 00:12:21;;;;;;;;;4.00;3.33;;;;;-143.90;88.45;74084.91;4949889;27;103743;-74
2023/08/23 00:14:48;;;;;;;;;4.67;4.67;;;;;-143.90;88.02;74080.78;4948679;27;102144;-74
2023/08/23 00:17:14;;;;;;;;;3.67;3.67;;;;;-143.90;88.35;74072.50;4937847;27;102373;-75
2023/08/23 00:19:41;;;;;;;;;5.00;4.67;;;;;-143.90;88.03;74072.50;4954501;27;102848;-75
2023/08/23 00:22:08;;;;;;;;;4.33;4.33;;;;;-143.90;88.22;74072.50;4952921;27;104051;-74
2023/08/23 00:24:34;;;;;;;;;4.67;4.67;;;;;-143.90;88.49;74070.44;4947944;27;104025;-74
2023/08/23 00:27:01;;;;;;;;;4.33;3.67;;;;;-143.90;88.01;74066.31;4960666;27;104327;-74
2023/08/23 00:29:27;;;;;;;;;3.00;2.00;;;;;-143.90;88.12;74072.50;4940044;27;102532;-74
2023/08/23 00:31:54;;;;;;;;;3.00;3.00;;;;;-143.90;88.21;74064.25;4940184;27;104470;-74
2023/08/23 00:34:20;;;;;;;;;3.67;3.67;;;;;-143.90;88.01;74066.31;4942961;28;104041;-75
2023/08/23 00:36:48;;;;;;;;;7.33;5.00;;;;;-143.90;87.98;74064.25;4945436;27;104060;-74
2023/08/23 00:39:15;;;;;;;;;4.67;4.67;;;;;-143.90;87.89;74055.97;4944894;27;102498;-75
2023/08/23 00:41:43;;;;;;;;;5.33;5.33;;;;;-143.90;87.77;74047.72;4941223;27;104036;-75
2023/08/23 00:44:09;;;;;;;;;4.67;4.67;;;;;-143.90;87.44;74043.59;4943308;27;102949;-75
2023/08/23 00:46:36;;;;;;;;;3.67;3.67;;;;;-143.90;87.61;74047.72;4950085;27;102593;-74
2023/08/23 00:49:03;;;;;;;;;4.67;4.67;;;;;-143.90;87.63;74045.66;4958617;27;103918;-75
2023/08/23 00:51:30;;;;;;;;;5.00;5.00;;;;;-143.90;87.54;74037.38;4942308;27;104178;-74
2023/08/23 00:53:57;;;;;;;;;4.67;4.00;;;;;-143.90;87.20;74022.91;4942515;27;102674;-74
2023/08/23 00:56:25;;;;;;;;;7.67;6.33;;;;;-143.90;86.71;74016.72;4959041;27;103793;-75
2023/08/23 00:58:51;;;;;;;;;5.67;5.33;;;;;-143.90;86.94;74024.97;4960307;27;102055;-75
2023/08/23 01:01:18;;;;;;;;;5.67;5.67;;;;;-143.90;87.17;74022.91;4948204;27;104077;-75
2023/08/23 01:03:45;;;;;;;;;5.67;5.00;;;;;-143.90;86.95;74022.91;4952842;27;102340;-74
2023/08/23 01:06:25;;;;;;;;;5.67;4.33;;;;;-143.90;87.03;74022.91;4951194;27;103650;-75
2023/08/23 01:09:10;;;;;;;;;4.33;4.33;;;;;-143.90;87.37;74022.91;4941751;27;102457;-75
2023/08/23 01:12:03;;;;;;;;;10.33;10.00;;;;;-143.90;87.92;74027.03;4944632;28;104096;-75
2023/08/23 01:14:53;;;;;;;;;8.67;8.67;;;;;-143.90;87.89;74024.97;4939830;27;103875;-75
2023/08/23 01:17:21;;;;;;;;;7.33;6.33;;;;;-143.90;87.67;74022.91;4969879;27;102756;-75
2023/08/23 01:19:50;;;;;;;;;8.00;8.00;;;;;-143.90;87.36;74022.91;4957028;27;102493;-77
2023/08/23 01:22:21;;;;;;;;;5.00;4.00;;;;;-143.90;87.25;74018.78;4943062;28;104064;-75
2023/08/23 01:24:51;;;;;;;;;4.33;4.00;;;;;-143.90;87.26;74018.78;4953428;27;102348;-75
2023/08/23 01:27:18;;;;;;;;;7.33;7.33;;;;;-143.90;87.05;74010.50;4950877;27;102579;-76
2023/08/23 01:29:46;;;;;;;;;8.33;8.00;;;;;-143.90;86.79;74012.56;4946895;27;102768;-76
2023/08/23 01:32:19;;;;;;;;;5.67;5.67;;;;;-143.90;87.28;74012.56;4960244;27;107619;-75
2023/08/23 01:34:51;;;;;;;;;6.33;6.33;;;;;-143.90;86.77;74016.72;4951162;27;102381;-75
2023/08/23 01:37:20;;;;;;;;;6.67;5.67;;;;;-143.90;87.07;74010.50;4944881;27;102421;-75
2023/08/23 01:39:48;;;;;;;;;8.00;6.67;;;;;-143.90;87.15;74012.56;4961795;27;104235;-75
2023/08/23 01:42:15;;;;;;;;;6.33;5.67;;;;;-143.90;86.80;74010.50;4951925;27;108814;-75
2023/08/23 01:44:43;;;;;;;;;9.67;8.67;;;;;-143.90;86.56;74010.50;4951681;27;103954;-75
2023/08/23 01:47:09;;;;;;;;;7.00;7.00;;;;;-143.90;86.14;74012.56;4948316;27;103910;-75
2023/08/23 01:49:36;;;;;;;;;7.67;7.67;;;;;-143.90;87.49;74027.03;4946995;27;102320;-75
2023/08/23 01:52:03;;;;;;;;;6.00;5.67;;;;;-143.90;87.43;74018.78;4948062;27;104403;-75
2023/08/23 01:54:29;;;;;;;;;6.67;6.67;;;;;-143.90;87.61;74022.91;4946929;27;104119;-75
2023/08/23 01:56:56;;;;;;;;;8.00;8.00;;;;;-143.90;87.04;74016.72;4961034;28;102378;-75
2023/08/23 01:59:23;;;;;;;;;7.33;7.00;;;;;-143.90;86.89;74027.03;4943737;28;103059;-75
2023/08/23 02:01:49;;;;;;;;;8.67;7.67;;;;;-143.90;87.04;74033.25;4951463;27;104041;-76
2023/08/23 02:04:17;;;;;;;;;6.00;5.00;;;;;-143.90;87.53;74035.31;4965864;27;102755;-76
2023/08/23 02:06:44;;;;;;;;;5.00;5.00;;;;;-143.90;87.72;74039.44;4944443;27;102242;-76
2023/08/23 02:09:10;;;;;;;;;6.00;6.00;;;;;-143.90;87.79;74041.50;4944412;27;102546;-75
2023/08/23 02:11:37;;;;;;;;;6.33;6.33;;;;;-143.90;87.66;74039.44;4943784;27;104012;-75
2023/08/23 02:14:04;;;;;;;;;6.00;5.00;;;;;-143.90;87.75;74041.50;4947015;27;104215;-75
2023/08/23 02:16:30;;;;;;;;;6.00;5.67;;;;;-143.90;87.54;74037.38;4957290;27;103661;-75
2023/08/23 02:18:57;;;;;;;;;4.67;4.67;;;;;-143.90;87.89;74043.59;4958220;28;102246;-75
2023/08/23 02:21:23;;;;;;;;;3.67;3.67;;;;;-143.90;87.59;74031.19;4950327;27;103969;-75
2023/08/23 02:23:50;;;;;;;;;5.00;5.00;;;;;-143.90;87.39;74031.19;4947453;28;104136;-75
2023/08/23 02:26:17;;;;;;;;;8.33;7.67;;;;;-143.90;87.30;74029.13;4951986;28;102071;-74
2023/08/23 02:28:43;;;;;;;;;5.67;5.67;;;;;-143.90;87.45;74027.03;4947509;28;102206;-75
2023/08/23 02:31:13;;;;;;;;;6.33;5.33;;;;;-143.90;87.27;74027.03;4956054;28;104091;-75
2023/08/23 02:33:40;;;;;;;;;6.33;5.33;;;;;-143.90;87.56;74033.25;4945267;28;103020;-75
2023/08/23 02:36:06;;;;;;;;;7.00;7.00;;;;;-143.90;87.25;74029.13;4954840;28;102170;-75
2023/08/23 02:38:33;;;;;;;;;9.67;8.00;;;;;-143.90;87.24;74027.03;4950574;27;102384;-75
2023/08/23 02:40:59;;;;;;;;;8.67;7.67;;;;;-143.90;87.28;74027.03;4942509;28;104306;-75
2023/08/23 02:43:26;;;;;;;;;8.00;8.00;;;;;-143.90;86.94;74022.91;4952528;28;101988;-75
2023/08/23 02:45:53;;;;;;;;;5.00;5.00;;;;;-143.90;87.20;74029.13;4946134;28;102006;-75
2023/08/23 02:48:19;;;;;;;;;6.67;6.67;;;;;-143.90;87.39;74031.19;4957195;27;102531;-76
2023/08/23 02:50:46;;;;;;;;;7.33;7.33;;;;;-143.90;87.35;74031.19;4952880;28;104301;-75
2023/08/23 02:53:12;;;;;;;;;8.00;8.00;;;;;-143.90;87.37;74037.38;4944142;28;102034;-75
2023/08/23 02:55:39;;;;;;;;;6.00;5.67;;;;;-143.90;87.71;74041.50;4942342;28;103878;-76
2023/08/23 02:58:05;;;;;;;;;6.67;6.67;;;;;-143.90;88.04;74043.59;4955004;27;103783;-74
2023/08/23 03:00:33;;;;;;;;;9.33;8.00;;;;;-143.90;88.13;74047.72;4946115;27;104110;-75
2023/08/23 03:03:00;;;;;;;;;6.67;6.67;;;;;-143.90;88.14;74043.59;4945178;28;102376;-75
2023/08/23 03:05:26;;;;;;;;;8.67;8.00;;;;;-143.90;88.27;74051.84;4945466;28;102022;-75
2023/08/23 03:07:53;;;;;;;;;10.33;9.33;;;;;-143.90;88.49;74045.66;4950055;28;102072;-76
2023/08/23 03:10:20;;;;;;;;;9.00;9.00;;;;;-143.90;88.53;74043.59;4943809;28;103944;-76
2023/08/23 03:12:46;;;;;;;;;11.67;10.67;;;;;-143.90;88.47;74043.59;4953252;27;102447;-74
2023/08/23 03:15:13;;;;;;;;;10.00;10.00;;;;;-143.90;88.87;74039.44;4951101;28;104069;-75
2023/08/23 03:17:40;;;;;;;;;10.33;10.33;;;;;-143.90;88.69;74033.25;4951658;28;102071;-75
2023/08/23 03:20:07;;;;;;;;;11.67;10.67;;;;;-143.90;88.57;74037.38;4949998;28;104188;-75
2023/08/23 03:22:33;;;;;;;;;11.33;8.67;;;;;-143.90;88.83;74035.31;4950573;28;102722;-78
2023/08/23 03:25:00;;;;;;;;;6.33;6.33;;;;;-143.90;88.74;74043.59;4950974;28;102365;-77
2023/08/23 03:27:26;;;;;;;;;12.00;11.00;;;;;-143.90;88.95;74045.66;4963507;28;102545;-77
2023/08/23 03:29:54;;;;;;;;;11.00;10.67;;;;;-143.90;89.08;74045.66;4949865;27;105121;-78
2023/08/23 03:32:20;;;;;;;;;8.67;8.67;;;;;-143.90;89.24;74043.59;4964202;28;102393;-78
2023/08/23 03:34:47;;;;;;;;;10.33;9.67;;;;;-143.90;88.90;74043.59;4956447;28;102458;-77
2023/08/23 03:37:14;;;;;;;;;15.33;13.33;;;;;-143.90;88.80;74045.66;4956798;28;102487;-75
2023/08/23 03:39:40;;;;;;;;;9.00;8.00;;;;;-143.90;89.04;74047.72;4953334;28;104179;-76
2023/08/23 03:42:07;;;;;;;;;17.67;14.00;;;;;-143.90;89.32;74060.13;4956302;28;102675;-76
2023/08/23 03:44:33;;;;;;;;;26.00;23.67;;;;;-143.90;89.30;74055.97;4943837;28;102120;-79
2023/08/23 03:47:00;;;;;;;;;17.00;16.33;;;;;-143.90;89.65;74058.06;4948146;28;102495;-76
2023/08/23 03:49:27;;;;;;;;;13.00;11.67;;;;;-143.90;89.80;74055.97;4942699;28;104540;-76
2023/08/23 03:51:55;;;;;;;;;12.67;10.33;;;;;-143.90;89.28;74043.59;4946582;28;102028;-78
2023/08/23 03:54:22;;;;;;;;;13.33;12.67;;;;;-143.90;89.15;74047.72;4954820;28;102516;-78
2023/08/23 03:56:48;;;;;;;;;17.67;17.67;;;;;-143.90;89.06;74047.72;4959249;28;105026;-76
2023/08/23 03:59:15;;;;;;;;;11.00;10.67;;;;;-143.90;88.88;74051.84;4954897;28;109309;-75
2023/08/23 04:01:43;;;;;;;;;17.67;17.00;;;;;-143.90;89.14;74070.44;4960416;28;102166;-75
2023/08/23 04:04:10;;;;;;;;;12.00;12.00;;;;;-143.90;89.04;74062.19;4947734;28;101944;-75
2023/08/23 04:06:38;;;;;;;;;9.33;7.33;;;;;-143.90;89.53;74062.19;4940457;28;104283;-75
2023/08/23 04:09:04;;;;;;;;;15.67;14.33;;;;;-143.90;90.01;74068.38;4950600;28;104277;-75
2023/08/23 04:11:31;;;;;;;;;14.33;13.00;;;;;-143.90;90.44;74066.31;4950632;28;101986;-75
2023/08/23 04:13:58;;;;;;;;;13.67;13.67;;;;;-143.90;90.48;74060.13;4943895;28;102358;-75
2023/08/23 04:16:24;;;;;;;;;12.67;12.67;;;;;-143.90;90.03;74055.97;4948308;28;103731;-76
2023/08/23 04:18:51;;;;;;;;;16.33;14.00;;;;;-143.90;89.49;74051.84;4957694;28;104182;-77
2023/08/23 04:21:17;;;;;;;;;10.67;10.67;;;;;-143.90;89.37;74047.72;4960215;27;101835;-77
2023/08/23 04:23:44;;;;;;;;;13.00;12.67;;;;;-143.90;89.14;74055.97;4954283;28;102120;-76
2023/08/23 04:26:11;;;;;;;;;18.67;17.00;;;;;-143.90;88.74;74047.72;4945980;28;103539;-76
2023/08/23 04:28:37;;;;;;;;;12.00;12.00;;;;;-143.90;89.08;74051.84;4940353;27;104018;-76
2023/08/23 04:31:04;;;;;;;;;19.33;17.33;;;;;-143.90;89.61;74068.38;4946746;28;102223;-76
2023/08/23 04:33:31;;;;;;;;;28.67;26.33;;;;;-143.90;90.19;74072.50;4944113;28;102364;-76
2023/08/23 04:35:57;;;;;;;;;20.00;19.00;;;;;-143.90;89.96;74062.19;4948671;28;103730;-76
2023/08/23 04:38:24;;;;;;;;;18.00;17.33;;;;;-143.90;89.51;74058.06;4943762;28;104181;-77
2023/08/23 04:40:59;;;;;;;;;15.00;13.33;;;;;-143.90;89.16;74058.06;4951670;27;102449;-76
2023/08/23 04:43:26;;;;;;;;;19.33;17.00;;;;;-143.90;88.88;74062.19;4947474;28;102156;-79
2023/08/23 04:45:54;;;;;;;;;13.00;12.67;;;;;-143.90;88.52;74058.06;4956673;28;102791;-77
2023/08/23 04:48:21;;;;;;;;;13.67;12.33;;;;;-143.90;87.53;74064.25;4948316;28;108905;-76
2023/08/23 04:50:57;;;;;;;;;17.00;16.00;;;;;-143.90;88.03;74060.13;4936423;28;102273;-78
2023/08/23 04:53:24;;;;;;;;;11.67;10.33;;;;;-143.90;87.49;74047.72;4949549;27;102006;-77
2023/08/23 04:55:57;;;;;;;;;16.00;14.67;;;;;-143.90;87.72;74064.25;4952009;27;102396;-78
2023/08/23 04:58:29;;;;;;;;;13.67;13.67;;;;;-143.90;87.24;74058.06;4943670;28;109039;-78
2023/08/23 05:00:58;;;;;;;;;11.00;11.00;;;;;-143.90;87.09;74049.78;4953586;28;102666;-77
2023/08/23 05:03:25;;;;;;;;;12.00;12.00;;;;;-143.90;86.41;74047.72;4950691;27;102163;-79
2023/08/23 05:05:52;;;;;;;;;12.00;12.00;;;;;-143.90;86.06;74049.78;4946284;28;102185;-77
2023/08/23 05:08:19;;;;;;;;;15.33;14.00;;;;;-143.90;86.21;74037.38;4952708;28;108795;-77
2023/08/23 05:10:54;;;;;;;;;14.00;13.33;;;;;-143.90;86.34;74039.44;4943081;27;102316;-77
2023/08/23 05:13:22;;;;;;;;;15.00;12.00;;;;;-143.90;86.30;74035.31;4945544;28;102696;-77
2023/08/23 05:15:55;;;;;;;;;17.00;14.33;;;;;-143.90;85.72;74037.38;4942452;28;102070;-77
2023/08/23 05:18:22;;;;;;;;;13.00;12.33;;;;;-143.90;86.40;74037.38;4949479;28;108604;-75
2023/08/23 05:20:53;;;;;;;;;18.33;16.00;;;;;-143.90;85.93;74039.44;4952151;28;103713;-78
2023/08/23 05:23:23;;;;;;;;;18.00;14.33;;;;;-143.90;85.44;74043.59;4956138;27;101998;-75
2023/08/23 05:25:51;;;;;;;;;13.00;13.00;;;;;-143.90;85.60;74035.31;4950813;28;102020;-76
2023/08/23 05:28:22;;;;;;;;;15.00;14.33;;;;;-143.90;84.40;74043.59;4954607;28;109325;-75
2023/08/23 05:30:52;;;;;;;;;18.33;17.33;;;;;-143.90;84.23;74049.78;4958610;28;102153;-76
2023/08/23 05:33:18;;;;;;;;;23.67;22.67;;;;;-143.90;84.09;74060.13;4951140;28;102077;-76
2023/08/23 05:35:45;;;;;;;;;23.67;23.00;;;;;-143.90;84.25;74055.97;4957544;28;107221;-76
2023/08/23 05:38:12;;;;;;;;;21.67;20.67;;;;;-143.90;84.04;74060.13;4950469;28;104155;-76
2023/08/23 05:40:39;;;;;;;;;16.33;14.00;;;;;-143.90;84.21;74068.38;4956371;28;102065;-75
2023/08/23 05:43:07;;;;;;;;;19.00;17.00;;;;;-143.90;85.02;74076.66;4956824;28;103420;-76
2023/08/23 05:45:33;;;;;;;;;15.67;15.33;;;;;-143.90;85.22;74072.50;4951834;28;102474;-77
2023/08/23 05:48:00;;;;;;;;;21.00;18.00;;;;;-143.90;84.95;74078.72;4959579;28;104078;-76
2023/08/23 05:50:27;;;;;;;;;17.67;15.00;;;;;-143.90;84.71;74080.78;4952026;28;101997;-76
2023/08/23 05:52:54;;;;;;;;;18.00;17.67;;;;;-143.90;84.60;74068.38;4949321;28;102257;-78
2023/08/23 05:55:21;;;;;;;;;12.00;10.00;;;;;-143.90;84.63;74064.25;4950636;28;102681;-76
2023/08/23 05:57:48;;;;;;;;;13.00;12.33;;;;;-143.90;84.44;74060.13;4945147;28;104309;-76
2023/08/23 06:00:15;;;;;;;;;14.00;13.00;;;;;-143.90;84.80;74055.97;4954051;28;102467;-76
2023/08/23 06:02:43;;;;;;;;;10.33;9.67;;;;;-143.90;84.60;74045.66;4936759;28;102659;-76
2023/08/23 06:05:11;;;;;;;;;9.33;9.33;;;;;-143.90;83.89;74055.97;4952749;28;102710;-77
2023/08/23 06:07:38;;;;;;;;;24.00;22.00;;;;;-143.90;82.35;74058.06;4949417;28;103936;-77
2023/08/23 06:10:05;;;;;;;;;23.33;22.00;;;;;-143.90;82.56;74068.38;4959582;28;104480;-77
2023/08/23 06:12:31;;;;;;;;;21.00;19.00;;;;;-143.90;83.29;74091.13;4951422;27;102384;-77
2023/08/23 06:14:58;;;;;;;;;18.00;16.33;;;;;-143.90;82.67;74086.97;4950159;28;102525;-77
2023/08/23 06:17:25;;;;;;;;;19.00;17.00;;;;;-143.90;82.58;74093.19;4952571;28;104100;-77
2023/08/23 06:19:52;;;;;;;;;16.00;16.00;;;;;-143.90;82.79;74086.97;4968704;28;102164;-76
2023/08/23 06:22:19;;;;;;;;;16.67;15.33;;;;;-143.90;83.07;74080.78;4951089;28;102553;-77
2023/08/23 06:24:46;;;;;;;;;16.67;15.67;;;;;-143.90;82.79;74078.72;4950384;28;102705;-76
2023/08/23 06:27:12;;;;;;;;;12.33;11.33;;;;;-143.90;81.53;74072.50;4953567;28;104111;-76
2023/08/23 06:29:40;;;;;;;;;14.33;14.00;;;;;-143.90;81.37;74062.19;4953404;28;102343;-76
2023/08/23 06:32:07;;;;;;;;;8.67;8.00;;;;;-143.90;81.87;74060.13;4947665;28;103071;-77
2023/08/23 06:34:35;;;;;;;;;15.67;14.00;;;;;-143.90;81.03;74062.19;4963843;28;102157;-76
2023/08/23 06:37:02;;;;;;;;;18.33;17.33;;;;;-143.90;81.32;74072.50;4946939;28;104186;-76
2023/08/23 06:39:29;;;;;;;;;10.33;9.33;;;;;-143.90;80.61;74074.59;4956139;28;102321;-77
2023/08/23 06:42:02;;;;;;;;;15.33;12.67;;;;;-143.90;80.67;74082.84;4952922;28;102863;-77
2023/08/23 06:44:29;;;;;;;;;18.67;18.00;;;;;-143.90;80.68;74084.91;4948830;28;102009;-76
2023/08/23 06:46:56;;;;;;;;;14.00;13.67;;;;;-143.90;79.97;74089.06;4946018;28;103850;-77
2023/08/23 06:49:23;;;;;;;;;15.00;14.00;;;;;-143.90;80.74;74082.84;4947601;28;102231;-76
2023/08/23 06:51:49;;;;;;;;;14.67;14.67;;;;;-143.90;79.89;74076.66;4957887;28;103760;-76
2023/08/23 06:54:16;;;;;;;;;13.00;11.00;;;;;-143.90;79.26;74076.66;4952809;28;102480;-76
2023/08/23 06:56:43;;;;;;;;;13.00;12.67;;;;;-143.90;78.80;74078.72;4951607;28;104338;-77
2023/08/23 06:59:09;;;;;;;;;16.33;16.00;;;;;-143.90;78.06;74078.72;4955939;28;102375;-77
2023/08/23 07:01:36;;;;;;;;;18.33;17.00;;;;;-143.90;78.54;74072.50;4948931;28;102570;-79
2023/08/23 07:04:03;;;;;;;;;22.33;20.67;;;;;-143.90;79.87;74080.78;4961036;28;102301;-78
2023/08/23 07:06:31;;;;;;;;;15.67;13.67;;;;;-143.90;79.41;74078.72;4950163;28;104022;-79
2023/08/23 07:08:58;;;;;;;;;19.33;17.00;;;;;-143.90;80.34;74068.38;4953335;28;102003;-79
2023/08/23 07:11:27;;;;;;;;;21.00;20.33;;;;;-143.90;78.69;74072.50;4947912;28;102520;-76
2023/08/23 07:13:53;;;;;;;;;15.33;14.67;;;;;-143.90;79.06;74078.72;4947147;28;102186;-77
2023/08/23 07:16:20;;;;;;;;;19.67;17.33;;;;;-143.90;78.44;74076.66;4955726;28;109038;-77
2023/08/23 07:18:46;;;;;;;;;20.33;19.67;;;;;-143.90;79.12;74089.06;4953179;28;102067;-79
2023/08/23 07:21:14;;;;;;;;;10.00;8.33;;;;;-143.90;77.95;74089.06;4950698;28;102601;-79
2023/08/23 07:23:41;;;;;;;;;26.33;26.33;;;;;-143.90;77.73;74089.06;4951713;28;102492;-79
2023/08/23 07:26:09;;;;;;;;;22.33;20.67;;;;;-143.90;77.08;74105.59;4956765;28;103972;-76
2023/08/23 07:28:36;;;;;;;;;17.67;17.00;;;;;-143.90;78.26;74103.53;4952713;28;103077;-79
2023/08/23 07:31:03;;;;;;;;;21.00;19.00;;;;;-143.90;78.74;74101.44;4950058;28;102016;-79
2023/08/23 07:33:29;;;;;;;;;18.33;15.00;;;;;-143.90;78.73;74095.25;4953425;28;102267;-77
2023/08/23 07:35:57;;;;;;;;;14.67;14.67;;;;;-143.90;78.53;74082.84;4950016;28;104197;-80
2023/08/23 07:38:24;;;;;;;;;18.33;17.67;;;;;-143.90;76.98;74095.25;4950506;28;102297;-79
2023/08/23 07:40:57;;;;;;;;;27.33;26.33;;;;;-143.90;77.83;74142.78;4963584;28;102798;-79
2023/08/23 07:43:24;;;;;;;;;21.00;20.67;;;;;-143.90;77.91;74130.38;4960061;28;101992;-79
2023/08/23 07:45:53;;;;;;;;;28.00;26.00;;;;;-143.90;78.06;74136.59;4957724;28;109172;-79
2023/08/23 07:48:21;;;;;;;;;27.67;25.67;;;;;-143.90;77.85;74109.72;4958382;28;101948;-78
2023/08/23 07:50:52;;;;;;;;;19.33;18.67;;;;;-143.90;76.44;74111.78;4946266;28;101959;-77
2023/08/23 07:53:19;;;;;;;;;19.67;19.00;;;;;-143.90;76.66;74105.59;4947196;28;102391;-77
2023/08/23 07:55:45;;;;;;;;;17.67;17.67;;;;;-143.90;77.13;74103.53;4948154;28;104479;-80
2023/08/23 07:58:13;;;;;;;;;21.33;19.00;;;;;-143.90;76.18;74086.97;4948691;28;102228;-80
2023/08/23 08:00:40;;;;;;;;;18.67;18.33;;;;;-143.90;75.69;74066.31;4957679;28;102467;-79
2023/08/23 08:03:08;;;;;;;;;12.00;11.00;;;;;-143.90;75.03;74051.84;4950189;28;102547;-79
2023/08/23 08:05:35;;;;;;;;;15.00;15.00;;;;;-143.90;74.73;74045.66;4944340;28;104001;-79
2023/08/23 08:08:03;;;;;;;;;16.67;13.67;;;;;-143.90;73.89;74024.97;4948639;28;102117;-79
2023/08/23 08:10:35;;;;;;;;;22.33;19.00;;;;;-143.90;74.08;74024.97;4953986;28;102088;-77
2023/08/23 08:13:02;;;;;;;;;21.67;19.33;;;;;-143.90;72.00;74004.31;4954979;28;102294;-79
2023/08/23 08:15:29;;;;;;;;;19.33;17.67;;;;;-143.90;73.39;73981.56;4949962;28;105316;-78
2023/08/23 08:17:56;;;;;;;;;24.00;22.00;;;;;-143.90;71.37;73981.56;4955258;27;102418;-79
2023/08/23 08:20:25;;;;;;;;;25.67;24.33;;;;;-143.90;72.54;73944.38;4963536;28;102379;-78
2023/08/23 08:22:52;;;;;;;;;19.33;19.00;;;;;-143.90;71.56;73927.84;4950368;27;102134;-78
2023/08/23 08:25:19;;;;;;;;;20.33;19.00;;;;;-143.90;70.52;73925.78;4952490;28;104031;-79
2023/08/23 08:27:46;;;;;;;;;16.00;16.00;;;;;-143.90;70.54;73896.84;4955613;28;104832;-78
2023/08/23 08:30:14;;;;;;;;;15.33;15.00;;;;;-143.90;70.81;73865.84;4964151;28;102902;-78
2023/08/23 08:32:41;;;;;;;;;31.67;29.00;;;;;-143.90;68.43;73859.63;4966883;28;102738;-79
2023/08/23 08:35:09;;;;;;;;;34.33;31.00;;;;;-143.90;68.01;73894.78;4957741;28;104039;-77
2023/08/23 08:37:36;;;;;;;;;20.00;19.33;;;;;-143.90;70.38;73853.44;4948838;28;102379;-79
2023/08/23 08:40:04;;;;;;;;;20.00;18.00;;;;;-143.90;68.62;73822.44;4949923;28;102405;-78
2023/08/23 08:42:31;;;;;;;;;18.33;17.67;;;;;-143.90;67.04;73816.25;4948929;28;102359;-77
2023/08/23 08:44:58;;;;;;;;;31.33;28.33;;;;;-143.90;68.06;73872.03;4950347;28;103915;-78
2023/08/23 08:47:25;;;;;;;;;24.33;23.00;;;;;-143.90;68.41;73880.31;4954975;28;102340;-79
2023/08/23 08:49:51;;;;;;;;;22.00;20.67;;;;;-143.90;69.05;73892.69;4942387;28;107762;-82
2023/08/23 08:52:20;;;;;;;;;21.67;21.00;;;;;-143.90;67.94;73876.16;4947029;28;102306;-78
2023/08/23 08:54:48;;;;;;;;;21.00;20.00;;;;;-143.90;69.19;73851.38;4944667;28;104107;-78
2023/08/23 08:57:15;;;;;;;;;15.00;14.00;;;;;-143.90;66.61;73830.69;4945746;28;102028;-77
2023/08/23 08:59:43;;;;;;;;;24.33;23.00;;;;;-143.90;66.91;73812.09;4949252;28;104799;-78
2023/08/23 09:02:12;;;;;;;;;20.00;19.33;;;;;-143.90;65.16;73832.78;4950010;28;102382;-76
2023/08/23 09:04:39;;;;;;;;;22.67;22.33;;;;;-143.90;67.85;73816.25;4960735;27;104544;-78
2023/08/23 09:07:06;;;;;;;;;18.67;17.33;;;;;-143.90;66.79;73795.56;4949399;28;101875;-79
2023/08/23 09:09:33;;;;;;;;;19.33;17.67;;;;;-143.90;64.56;73770.78;4958070;28;103591;-80
2023/08/23 09:11:59;;;;;;;;;14.67;14.67;;;;;-143.90;64.53;73745.97;4963325;28;102396;-79
2023/08/23 09:14:28;;;;;;;;;14.00;13.00;;;;;-143.90;63.96;73723.22;4948575;28;104377;-79
2023/08/23 09:16:55;;;;;;;;;21.67;21.33;;;;;-143.90;63.56;73692.25;4954188;28;101952;-79
2023/08/23 09:19:22;;;;;;;;;19.33;18.00;;;;;-143.90;62.60;73681.91;4953357;28;102434;-79
2023/08/23 09:21:49;;;;;;;;;19.00;19.00;;;;;-143.90;63.39;73706.69;4952524;28;102162;-80
2023/08/23 09:24:17;;;;;;;;;18.00;18.00;;;;;-143.90;63.29;73706.69;4946956;28;103700;-80
2023/08/23 09:26:44;;;;;;;;;15.00;14.00;;;;;-143.90;62.39;73692.25;4948485;28;102030;-80
2023/08/23 09:29:12;;;;;;;;;14.00;13.00;;;;;-143.90;63.03;73692.25;4950521;28;102328;-79
2023/08/23 09:31:39;;;;;;;;;19.00;18.00;;;;;-143.90;63.24;73717.03;4954682;28;101975;-80
2023/08/23 09:34:14;;;;;;;;;17.67;16.00;;;;;-143.90;61.77;73700.50;4949633;28;104251;-81
2023/08/23 09:36:41;;;;;;;;;20.00;19.00;;;;;-143.90;64.40;73714.97;4948057;28;102207;-79
2023/08/23 09:39:11;;;;;;;;;19.00;18.33;;;;;-143.90;62.06;73700.50;4958337;28;102305;-78
2023/08/23 09:41:42;;;;;;;;;23.33;22.00;;;;;-143.90;62.37;73683.97;4952978;28;102088;-79
2023/08/23 09:44:27;;;;;;;;;24.00;22.67;;;;;-143.90;62.14;73663.31;4962286;28;108977;-79
2023/08/23 09:46:58;;;;;;;;;25.67;23.33;;;;;-143.90;61.86;73663.31;4957879;28;102273;-79
2023/08/23 09:49:34;;;;;;;;;18.67;18.33;;;;;-143.90;62.10;73640.56;4964685;28;103978;-80
2023/08/23 09:52:03;;;;;;;;;16.67;16.67;;;;;-143.90;60.05;73638.50;4960609;28;102551;-80
2023/08/23 09:55:03;;;;;;;;;18.33;17.67;;;;;-143.90;61.17;73648.84;4948500;28;104444;-79
2023/08/23 09:57:41;;;;;;;;;15.67;15.00;;;;;-143.90;59.23;73638.50;4954861;27;102206;-82
2023/08/23 10:00:09;;;;;;;;;16.67;15.00;;;;;-143.90;59.95;73626.09;4961331;28;102442;-79
2023/08/23 10:02:36;;;;;;;;;15.33;15.33;;;;;-143.90;58.70;73615.78;4944242;28;102818;-80
2023/08/23 10:05:06;;;;;;;;;18.00;15.67;;;;;-143.90;60.01;73588.91;4956071;28;104118;-80
2023/08/23 10:07:34;;;;;;;;;19.67;18.67;;;;;-143.90;58.42;73582.72;4958170;28;102236;-80
2023/08/23 10:10:03;;;;;;;;;23.67;23.67;;;;;-143.90;56.70;73580.63;4948346;27;102366;-77
2023/08/23 10:12:30;;;;;;;;;23.33;20.33;;;;;-143.90;58.84;73621.97;4949697;28;103052;-79
2023/08/23 10:14:59;;;;;;;;;18.00;16.67;;;;;-143.90;58.88;73642.63;4961904;28;103844;-78
2023/08/23 10:17:26;;;;;;;;;15.33;15.00;;;;;-143.90;60.37;73661.25;4946999;28;102220;-80
2023/08/23 10:19:53;;;;;;;;;19.33;17.67;;;;;-143.90;60.68;73688.09;4953616;28;102026;-80
2023/08/23 10:22:20;;;;;;;;;21.33;19.67;;;;;-143.90;61.33;73710.84;4953804;28;102242;-80
2023/08/23 10:24:48;;;;;;;;;18.00;16.33;;;;;-143.90;60.44;73708.78;4950238;28;104349;-77
2023/08/23 10:27:16;;;;;;;;;16.33;15.00;;;;;-143.90;61.91;73679.84;4958028;28;102345;-81
2023/08/23 10:29:49;;;;;;;;;11.67;11.67;;;;;-143.90;60.00;73655.03;4959020;27;103532;-81
2023/08/23 10:32:17;;;;;;;;;12.00;12.00;;;;;-143.90;60.24;73634.38;4968950;28;102496;-80
2023/08/23 10:34:43;;;;;;;;;8.67;8.67;;;;;-143.90;58.79;73621.97;4955720;28;104115;-80
2023/08/23 10:37:15;;;;;;;;;11.00;10.00;;;;;-143.90;59.13;73605.44;4946652;28;102463;-80
2023/08/23 10:39:48;;;;;;;;;9.00;8.67;;;;;-143.90;59.24;73595.09;4959759;28;104442;-80
2023/08/23 10:42:16;;;;;;;;;8.67;8.00;;;;;-143.90;58.86;73595.09;4954286;28;101995;-80
2023/08/23 10:44:58;;;;;;;;;13.67;13.00;;;;;-143.90;59.14;73597.16;4955331;28;104104;-81
2023/08/23 10:47:25;;;;;;;;;10.00;10.00;;;;;-143.90;58.54;73607.50;4963572;28;102164;-80
2023/08/23 10:49:52;;;;;;;;;11.67;10.00;;;;;-143.90;58.37;73584.78;4959639;28;102212;-80
2023/08/23 10:52:21;;;;;;;;;9.00;9.00;;;;;-143.90;57.28;73572.38;4940735;28;102153;-80
2023/08/23 10:54:48;;;;;;;;;11.67;11.00;;;;;-143.90;57.67;73578.56;4936257;28;104171;-78
2023/08/23 10:57:17;;;;;;;;;11.00;11.00;;;;;-143.90;58.65;73555.84;4944599;28;102446;-79
2023/08/23 10:59:44;;;;;;;;;11.33;10.67;;;;;-143.90;55.00;73547.56;4946089;28;102294;-79
2023/08/23 11:02:11;;;;;;;;;16.00;14.33;;;;;-143.90;57.60;73533.09;4944122;28;103798;-81